Time;durP1;ratioP1;P1;durP2;ratioP2;P2;SDS_P1;SDS_P2;PMS_P1;PMS_P2;Temp;Humidity;BMP_temperature;BMP_pressure;BME280_temperature;BME280_humidity;BME280_pressure;Samples;Min_cycle;Max_cycle;Signal;HPM_P1;HPM_P2
2021/05/08 00:00:59;;;;;;;3.00;2.22;;;;;;;18.61;45.17;101563.25;5025044;28;20040;-41
2021/05/08 00:03:24;;;;;;;2.00;1.90;;;;;;;18.62;45.36;101570.22;5018598;28;20763;-40
2021/05/08 00:05:50;;;;;;;3.55;2.17;;;;;;;18.57;45.44;101559.63;5022363;28;20030;-40
2021/05/08 00:08:15;;;;;;;4.88;2.70;;;;;;;18.57;45.27;101562.31;5016178;28;20702;-41
2021/05/08 00:10:41;;;;;;;2.17;2.08;;;;;;;18.56;45.31;101564.22;5014820;28;20033;-40
2021/05/08 00:13:06;;;;;;;3.08;2.65;;;;;;;18.53;45.37;101554.09;5019528;28;20033;-40
2021/05/08 00:15:32;;;;;;;2.90;2.35;;;;;;;18.54;45.27;101549.50;5025345;28;20439;-39
2021/05/08 00:17:57;;;;;;;3.40;2.25;;;;;;;18.52;45.46;101557.09;5026631;28;20526;-39
2021/05/08 00:20:22;;;;;;;4.55;2.20;;;;;;;18.50;45.33;101554.72;5024907;28;20037;-39
2021/05/08 00:22:48;;;;;;;2.72;2.53;;;;;;;18.51;45.28;101550.13;5025091;28;20126;-41
2021/05/08 00:25:13;;;;;;;2.35;2.22;;;;;;;18.48;45.68;101545.38;5025137;28;20037;-40
2021/05/08 00:27:39;;;;;;;2.10;2.10;;;;;;;18.46;45.50;101542.19;5024390;28;20029;-40
2021/05/08 00:30:05;;;;;;;2.25;2.15;;;;;;;18.45;45.65;101529.81;5022462;28;20551;-40
2021/05/08 00:32:30;;;;;;;4.72;2.17;;;;;;;18.45;45.54;101535.22;5008958;28;20034;-39
2021/05/08 00:34:56;;;;;;;2.58;2.38;;;;;;;18.43;45.65;101534.75;5024600;28;20475;-39
2021/05/08 00:37:21;;;;;;;3.60;2.35;;;;;;;18.40;45.75;101530.78;5008670;28;20043;-39
2021/05/08 00:39:46;;;;;;;2.50;2.30;;;;;;;18.38;45.50;101521.44;5026079;28;20042;-41
2021/05/08 00:42:12;;;;;;;2.47;2.28;;;;;;;18.38;45.47;101521.44;5024026;28;20407;-39
2021/05/08 00:44:38;;;;;;;3.75;2.28;;;;;;;18.36;45.24;101524.44;5008538;28;20402;-39
2021/05/08 00:47:03;;;;;;;2.22;2.10;;;;;;;18.36;45.38;101521.75;5026475;28;20117;-39
2021/05/08 00:49:29;;;;;;;2.25;2.10;;;;;;;18.34;45.30;101521.28;5025399;28;20041;-39
2021/05/08 00:51:55;;;;;;;3.25;2.13;;;;;;;18.32;44.88;101529.69;5008891;28;20038;-39
2021/05/08 00:54:21;;;;;;;2.60;2.40;;;;;;;18.33;45.28;101531.25;5007357;28;20037;-39
2021/05/08 00:56:47;;;;;;;2.70;2.50;;;;;;;18.30;44.72;101528.41;5008803;28;20044;-39
2021/05/08 00:59:12;;;;;;;3.45;2.47;;;;;;;18.30;44.89;101529.22;5024083;28;20034;-40
2021/05/08 01:01:40;;;;;;;2.95;2.30;;;;;;;18.27;44.91;101527.16;5008003;28;20064;-39
2021/05/08 01:04:05;;;;;;;3.35;2.53;;;;;;;18.28;44.84;101530.63;5023879;28;20041;-40
2021/05/08 01:06:32;;;;;;;2.63;2.40;;;;;;;18.25;44.82;101523.97;5024659;28;20503;-40
2021/05/08 01:08:58;;;;;;;3.80;2.47;;;;;;;18.25;44.69;101515.91;5023592;28;20068;-39
2021/05/08 01:11:23;;;;;;;4.93;2.50;;;;;;;18.23;44.55;101514.63;5008121;28;20054;-39
2021/05/08 01:13:48;;;;;;;2.80;2.38;;;;;;;18.22;44.65;101505.75;5007095;28;20052;-39
2021/05/08 01:16:14;;;;;;;2.47;2.30;;;;;;;18.20;44.56;101510.69;5024381;28;20045;-40
2021/05/08 01:18:39;;;;;;;4.63;2.50;;;;;;;18.19;44.55;101506.41;4990884;28;20044;-40
2021/05/08 01:21:11;;;;;;;2.83;2.63;;;;;;;18.18;44.65;101504.81;5040662;28;20039;-39
2021/05/08 01:23:37;;;;;;;3.20;2.90;;;;;;;18.16;44.52;101507.06;4994780;28;20041;-39
2021/05/08 01:26:02;;;;;;;2.90;2.70;;;;;;;18.17;44.35;101514.00;5003994;28;20438;-40
2021/05/08 01:28:27;;;;;;;2.80;2.60;;;;;;;18.14;44.62;101509.25;5007442;28;20038;-40
2021/05/08 01:30:53;;;;;;;4.18;2.80;;;;;;;18.14;44.25;101508.47;5019129;28;20030;-39
2021/05/08 01:33:18;;;;;;;3.00;2.80;;;;;;;18.12;44.67;101511.47;5005252;28;20046;-39
2021/05/08 01:35:44;;;;;;;3.10;2.90;;;;;;;18.08;44.35;101502.47;5005931;28;20046;-40
2021/05/08 01:38:09;;;;;;;2.90;2.80;;;;;;;18.10;44.56;101507.50;5004987;28;20163;-40
2021/05/08 01:40:37;;;;;;;3.30;3.10;;;;;;;18.06;44.72;101498.50;5005343;28;20087;-40
2021/05/08 01:43:02;;;;;;;2.72;2.60;;;;;;;18.08;44.20;101498.97;5012579;28;20060;-40
2021/05/08 01:45:28;;;;;;;2.80;2.60;;;;;;;18.04;44.31;101496.09;5025013;28;20456;-40
2021/05/08 01:47:53;;;;;;;2.95;2.75;;;;;;;18.03;44.27;101491.81;5007044;28;20045;-39
2021/05/08 01:50:21;;;;;;;4.53;2.92;;;;;;;18.01;44.80;101493.25;5024780;28;20064;-39
2021/05/08 01:52:46;;;;;;;3.53;3.10;;;;;;;18.01;44.39;101490.56;5023036;28;20487;-39
2021/05/08 01:55:16;;;;;;;3.22;3.03;;;;;;;17.99;44.51;101482.81;5006791;28;20041;-39
2021/05/08 01:57:52;;;;;;;3.22;3.03;;;;;;;17.99;44.27;101484.72;5007687;28;20041;-39
2021/05/08 02:00:38;;;;;;;3.15;3.05;;;;;;;17.97;44.50;101485.03;5008116;28;20112;-40
2021/05/08 02:03:04;;;;;;;3.17;2.97;;;;;;;17.96;44.39;101477.28;5024470;28;20037;-39
2021/05/08 02:05:31;;;;;;;3.70;3.25;;;;;;;17.95;44.42;101479.16;5024788;28;20113;-39
2021/05/08 02:07:59;;;;;;;3.25;2.97;;;;;;;17.93;44.75;101470.63;5023321;28;20042;-40
2021/05/08 02:10:25;;;;;;;5.00;3.13;;;;;;;17.91;44.44;101472.06;5023101;28;20534;-39
2021/05/08 02:12:50;;;;;;;3.70;3.40;;;;;;;17.91;44.46;101472.84;5024737;28;20042;-39
2021/05/08 02:15:17;;;;;;;3.35;3.15;;;;;;;17.90;44.67;101468.56;5022542;28;20041;-40
2021/05/08 02:17:43;;;;;;;3.75;3.47;;;;;;;17.89;44.49;101474.28;5007235;28;20037;-39
2021/05/08 02:20:15;;;;;;;3.60;3.30;;;;;;;17.90;44.64;101478.53;5021922;28;20072;-40
2021/05/08 02:22:41;;;;;;;3.50;3.30;;;;;;;17.88;44.47;101472.69;5022961;28;20044;-39
2021/05/08 02:25:07;;;;;;;3.42;3.22;;;;;;;17.85;44.40;101468.72;5023072;28;20620;-39
2021/05/08 02:27:33;;;;;;;3.47;3.28;;;;;;;17.84;44.40;101461.75;5022860;28;20095;-39
2021/05/08 02:29:59;;;;;;;3.63;3.33;;;;;;;17.83;44.58;101459.38;5022796;28;20033;-39
2021/05/08 02:32:24;;;;;;;4.57;3.40;;;;;;;17.82;44.23;101452.41;5006729;28;20039;-39
2021/05/08 02:34:50;;;;;;;3.42;3.22;;;;;;;17.83;44.39;101443.25;5023847;28;20047;-40
2021/05/08 02:37:15;;;;;;;3.83;3.55;;;;;;;17.80;44.12;101450.06;5024473;28;20052;-39
2021/05/08 02:39:40;;;;;;;3.55;3.33;;;;;;;17.80;44.50;101449.25;5023606;28;20034;-41
2021/05/08 02:42:06;;;;;;;4.18;3.88;;;;;;;17.80;44.29;101454.63;5022486;28;20038;-39
2021/05/08 02:44:31;;;;;;;3.70;3.50;;;;;;;17.79;44.40;101455.75;5022682;28;20126;-40
2021/05/08 02:46:57;;;;;;;3.45;3.25;;;;;;;17.77;44.46;101450.69;5022875;28;20029;-39
2021/05/08 02:49:22;;;;;;;3.88;3.35;;;;;;;17.78;44.41;101449.59;5022877;28;20038;-40
2021/05/08 02:51:47;;;;;;;3.55;3.30;;;;;;;17.77;44.41;101448.00;5027459;28;20053;-40
2021/05/08 02:54:13;;;;;;;4.13;3.67;;;;;;;17.77;44.47;101445.31;5009458;28;20045;-39
2021/05/08 02:56:38;;;;;;;4.03;3.60;;;;;;;17.77;44.38;101448.00;5027810;28;20553;-39
2021/05/08 02:59:03;;;;;;;4.05;3.75;;;;;;;17.74;44.34;101451.31;5028938;28;20041;-41
2021/05/08 03:01:29;;;;;;;4.30;3.63;;;;;;;17.75;44.48;101436.78;5027658;28;20783;-41
2021/05/08 03:03:54;;;;;;;7.07;3.72;;;;;;;17.74;44.45;101429.81;5028313;28;20116;-40
2021/05/08 03:06:19;;;;;;;3.90;3.70;;;;;;;17.71;44.37;101433.91;5026826;28;20033;-39
2021/05/08 03:08:45;;;;;;;6.82;4.00;;;;;;;17.70;44.59;101426.94;5026280;28;20718;-39
2021/05/08 03:11:10;;;;;;;4.38;4.05;;;;;;;17.69;44.62;101422.69;5027451;28;20038;-41
2021/05/08 03:13:36;;;;;;;3.85;3.60;;;;;;;17.69;44.62;101425.38;5027920;28;20641;-40
2021/05/08 03:16:01;;;;;;;3.50;3.20;;;;;;;17.69;44.62;101411.94;5026918;28;20037;-39
2021/05/08 03:18:26;;;;;;;3.92;3.55;;;;;;;17.69;44.53;101413.84;5027446;28;20043;-40
2021/05/08 03:20:52;;;;;;;4.22;3.83;;;;;;;17.68;44.58;101412.25;5027408;28;20447;-39
2021/05/08 03:23:17;;;;;;;3.88;3.58;;;;;;;17.68;44.83;101409.56;5027327;28;20052;-39
2021/05/08 03:25:42;;;;;;;4.55;4.00;;;;;;;17.66;44.43;101407.19;5027476;28;20104;-39
2021/05/08 03:28:08;;;;;;;4.43;4.00;;;;;;;17.64;44.73;101411.31;5025892;28;20049;-39
2021/05/08 03:30:33;;;;;;;4.13;3.83;;;;;;;17.64;44.79;101403.25;5027709;28;20041;-39
2021/05/08 03:32:58;;;;;;;4.38;3.90;;;;;;;17.65;44.94;101405.59;5009647;28;20045;-39
2021/05/08 03:35:24;;;;;;;4.05;3.70;;;;;;;17.64;44.83;101405.94;5026854;28;20086;-39
2021/05/08 03:37:49;;;;;;;6.90;3.83;;;;;;;17.63;45.24;101399.75;5027697;28;20774;-39
2021/05/08 03:40:15;;;;;;;4.22;3.75;;;;;;;17.62;45.04;101400.09;5024742;28;20041;-40
2021/05/08 03:42:40;;;;;;;3.75;3.45;;;;;;;17.62;45.17;101398.16;5026300;28;20045;-39
2021/05/08 03:45:06;;;;;;;4.20;3.90;;;;;;;17.60;44.95;101397.69;5025748;28;20029;-39
2021/05/08 03:47:31;;;;;;;4.10;3.80;;;;;;;17.62;45.52;101397.41;5027272;28;20132;-39
2021/05/08 03:49:57;;;;;;;4.00;3.67;;;;;;;17.62;45.26;101400.09;5025720;28;20045;-39
2021/05/08 03:52:23;;;;;;;27.30;4.00;;;;;;;17.61;44.85;101398.50;5025427;28;20055;-38
2021/05/08 03:54:48;;;;;;;4.28;3.80;;;;;;;17.60;45.41;101389.63;5008913;28;20044;-39
2021/05/08 03:57:14;;;;;;;8.02;4.28;;;;;;;17.60;45.41;101388.84;5027284;28;20037;-39
2021/05/08 03:59:39;;;;;;;8.30;3.67;;;;;;;17.58;45.19;101374.94;5025495;28;20190;-39
2021/05/08 04:02:04;;;;;;;3.90;3.60;;;;;;;17.61;45.32;101377.00;5009068;28;20038;-39
2021/05/08 04:04:30;;;;;;;6.10;3.75;;;;;;;17.58;45.67;101378.41;5006469;28;20111;-39
2021/05/08 04:06:55;;;;;;;4.60;3.33;;;;;;;17.58;45.21;101366.88;5005463;28;20767;-39
2021/05/08 04:09:20;;;;;;;3.50;3.22;;;;;;;17.58;45.45;101367.66;5006834;28;20065;-39
2021/05/08 04:11:46;;;;;;;3.90;3.60;;;;;;;17.59;45.75;101369.25;5006595;28;20048;-40
2021/05/08 04:14:11;;;;;;;3.50;3.20;;;;;;;17.61;45.52;101366.25;5005232;28;20050;-40
2021/05/08 04:16:37;;;;;;;3.60;3.17;;;;;;;17.61;45.58;101358.19;5005140;28;20044;-39
2021/05/08 04:19:03;;;;;;;3.95;3.65;;;;;;;17.60;45.37;101367.34;4989652;28;20029;-39
2021/05/08 04:21:29;;;;;;;3.30;3.10;;;;;;;17.60;45.69;101370.03;5017384;28;20040;-39
2021/05/08 04:23:54;;;;;;;5.15;3.63;;;;;;;17.62;45.48;101368.59;5024971;28;20038;-39
2021/05/08 04:26:19;;;;;;;3.50;3.20;;;;;;;17.61;45.43;101374.31;5025833;28;20403;-39
2021/05/08 04:28:45;;;;;;;5.45;3.38;;;;;;;17.61;45.55;101383.16;5026508;28;20041;-39
2021/05/08 04:31:10;;;;;;;3.63;3.33;;;;;;;17.62;45.49;101376.66;5009220;28;20041;-39
2021/05/08 04:33:35;;;;;;;3.42;3.22;;;;;;;17.63;45.40;101370.19;5024263;28;20068;-40
2021/05/08 04:36:01;;;;;;;3.38;3.17;;;;;;;17.63;45.72;101372.09;5026410;28;20045;-41
2021/05/08 04:38:26;;;;;;;4.93;3.42;;;;;;;17.64;45.68;101370.97;5025758;28;20041;-40
2021/05/08 04:40:53;;;;;;;3.22;3.03;;;;;;;17.65;45.70;101365.28;5025150;28;20042;-39
2021/05/08 04:43:18;;;;;;;3.25;2.80;;;;;;;17.65;45.98;101362.59;5008331;28;20037;-40
2021/05/08 04:45:43;;;;;;;3.72;3.42;;;;;;;17.65;45.47;101353.75;5024931;28;20047;-39
2021/05/08 04:48:09;;;;;;;3.63;3.40;;;;;;;17.67;45.57;101343.47;5024688;28;20065;-39
2021/05/08 04:50:34;;;;;;;3.95;3.65;;;;;;;17.67;45.72;101351.53;5025137;28;20029;-39
2021/05/08 04:53:00;;;;;;;3.58;3.28;;;;;;;17.67;45.67;101338.91;5026469;28;20025;-39
2021/05/08 04:55:25;;;;;;;3.55;3.25;;;;;;;17.68;45.50;101343.16;5025386;28;20612;-39
2021/05/08 04:57:50;;;;;;;3.70;3.45;;;;;;;17.67;45.68;101348.84;5026112;28;20059;-40
2021/05/08 05:00:16;;;;;;;4.85;3.33;;;;;;;17.67;45.61;101338.09;5018101;28;20030;-40
2021/05/08 05:02:45;;;;;;;4.13;3.70;;;;;;;17.67;45.74;101338.09;5005402;28;20429;-40
2021/05/08 05:05:11;;;;;;;3.90;3.17;;;;;;;17.65;45.62;101340.31;5023212;28;20033;-40
2021/05/08 05:07:37;;;;;;;3.67;3.40;;;;;;;17.65;45.39;101346.47;5022251;28;20156;-40
2021/05/08 05:10:03;;;;;;;3.63;3.28;;;;;;;17.67;45.41;101344.28;5022204;28;20038;-41
2021/05/08 05:12:29;;;;;;;3.40;3.20;;;;;;;17.67;45.49;101349.66;4992647;28;20084;-40
2021/05/08 05:14:54;;;;;;;4.47;3.42;;;;;;;17.66;45.34;101347.25;4968080;28;20050;-39
2021/05/08 05:17:19;;;;;;;3.30;3.05;;;;;;;17.66;45.31;101355.31;4985220;28;20552;-39
2021/05/08 05:19:45;;;;;;;3.20;2.90;;;;;;;17.65;45.45;101351.84;4999848;28;20038;-40
2021/05/08 05:22:10;;;;;;;3.22;3.03;;;;;;;17.69;45.73;101352.00;4986802;28;20049;-40
2021/05/08 05:24:35;;;;;;;3.25;3.00;;;;;;;17.71;45.53;101353.28;4986697;28;20030;-40
2021/05/08 05:27:01;;;;;;;4.18;3.00;;;;;;;17.74;45.29;101354.53;4963583;28;20048;-40
2021/05/08 05:29:26;;;;;;;5.55;3.63;;;;;;;17.71;45.67;101355.97;4979997;28;20042;-41
2021/05/08 05:31:52;;;;;;;3.60;3.30;;;;;;;17.73;45.67;101350.28;5005445;28;20174;-41
2021/05/08 05:34:18;;;;;;;3.55;3.33;;;;;;;17.74;45.48;101355.34;5004725;28;20561;-43
2021/05/08 05:36:43;;;;;;;3.92;2.80;;;;;;;17.76;45.34;101347.75;4986999;28;20038;-41
2021/05/08 05:39:08;;;;;;;3.05;2.85;;;;;;;17.77;45.31;101341.25;4970506;28;20181;-41
2021/05/08 05:41:34;;;;;;;4.55;3.38;;;;;;;17.80;45.59;101347.09;4987187;28;20542;-40
2021/05/08 05:44:01;;;;;;;4.45;2.92;;;;;;;17.79;45.28;101340.16;4987368;28;20037;-40
2021/05/08 05:46:27;;;;;;;3.20;3.10;;;;;;;17.79;45.69;101343.63;5004571;28;20040;-41
2021/05/08 05:48:52;;;;;;;3.00;2.88;;;;;;;17.79;45.29;101349.00;5003412;28;20041;-41
2021/05/08 05:51:17;;;;;;;3.05;2.85;;;;;;;17.80;45.56;101342.53;5019250;28;20792;-42
2021/05/08 05:53:43;;;;;;;4.03;3.03;;;;;;;17.80;45.42;101342.53;5002738;28;20050;-42
2021/05/08 05:56:08;;;;;;;3.30;3.10;;;;;;;17.82;45.08;101347.56;5018593;28;20045;-44
2021/05/08 05:58:33;;;;;;;4.28;3.00;;;;;;;17.84;45.04;101342.69;4997562;28;20471;-42
2021/05/08 06:00:59;;;;;;;3.53;3.20;;;;;;;17.85;45.30;101338.88;4998668;28;20038;-42
2021/05/08 06:03:25;;;;;;;3.13;2.88;;;;;;;17.85;44.93;101341.56;4991442;28;20093;-41
2021/05/08 06:05:50;;;;;;;3.55;3.28;;;;;;;17.85;44.98;101336.97;4985559;28;20030;-43
2021/05/08 06:08:16;;;;;;;3.55;3.22;;;;;;;17.89;44.84;101332.56;4984158;28;20057;-41
2021/05/08 06:10:41;;;;;;;3.55;3.28;;;;;;;17.90;44.89;101327.94;4982453;28;20699;-40
2021/05/08 06:13:06;;;;;;;3.60;3.20;;;;;;;17.87;44.72;101324.00;5009598;28;20050;-42
2021/05/08 06:15:32;;;;;;;4.15;3.30;;;;;;;17.86;44.68;101321.66;4996983;28;20037;-41
2021/05/08 06:17:57;;;;;;;4.10;3.30;;;;;;;17.87;44.91;101326.69;4993549;28;20041;-41
2021/05/08 06:20:23;;;;;;;6.97;3.33;;;;;;;17.87;44.66;101321.31;4983378;28;20038;-40
2021/05/08 06:22:48;;;;;;;3.90;3.58;;;;;;;17.87;44.93;101315.94;4993957;28;20046;-40
2021/05/08 06:25:13;;;;;;;3.83;3.10;;;;;;;17.90;44.37;101309.94;4992722;28;20034;-41
2021/05/08 06:27:42;;;;;;;3.50;3.15;;;;;;;17.89;44.47;101311.06;4977225;28;20168;-40
2021/05/08 06:30:13;;;;;;;3.05;2.90;;;;;;;17.91;44.76;101313.41;4979431;28;20038;-41
2021/05/08 06:32:38;;;;;;;3.38;3.10;;;;;;;17.91;44.53;101310.72;4999478;28;20034;-41
2021/05/08 06:35:04;;;;;;;4.20;3.03;;;;;;;17.91;44.37;101308.81;5002602;28;20392;-41
2021/05/08 06:37:29;;;;;;;5.53;3.47;;;;;;;17.90;44.59;101309.94;5002263;28;20053;-41
2021/05/08 06:39:56;;;;;;;3.20;3.03;;;;;;;17.91;44.44;101310.72;5000456;28;20045;-42
2021/05/08 06:42:21;;;;;;;3.65;3.00;;;;;;;17.93;44.18;101306.59;5000280;28;20052;-40
2021/05/08 06:44:46;;;;;;;3.35;3.17;;;;;;;17.90;43.97;101309.94;5000787;28;20034;-41
2021/05/08 06:47:15;;;;;;;3.95;3.50;;;;;;;17.92;44.33;101304.25;5002298;28;20601;-41
2021/05/08 06:49:44;;;;;;;3.75;3.45;;;;;;;17.92;44.06;101288.13;5001338;28;20492;-40
2021/05/08 06:52:09;;;;;;;3.20;3.00;;;;;;;17.93;44.28;101287.78;5005012;28;20129;-41
2021/05/08 06:54:35;;;;;;;3.67;3.38;;;;;;;17.96;44.00;101297.09;5009081;28;20033;-41
2021/05/08 06:57:00;;;;;;;5.35;3.13;;;;;;;17.94;43.97;101289.38;5010418;28;20052;-41
2021/05/08 06:59:26;;;;;;;3.45;3.25;;;;;;;17.98;44.05;101289.53;4987873;28;20026;-40
2021/05/08 07:01:51;;;;;;;4.35;3.95;;;;;;;17.97;44.02;101283.34;5020368;28;20085;-42
2021/05/08 07:04:17;;;;;;;4.00;3.60;;;;;;;17.98;43.81;101284.91;5019465;28;20492;-41
2021/05/08 07:06:43;;;;;;;4.40;3.20;;;;;;;18.00;44.34;101281.94;5019699;28;20055;-41
2021/05/08 07:09:09;;;;;;;3.83;3.42;;;;;;;18.01;44.34;101284.28;5015861;28;20537;-42
2021/05/08 07:11:35;;;;;;;3.88;3.20;;;;;;;18.06;44.40;101284.09;5015389;28;20049;-44
2021/05/08 07:14:00;;;;;;;14.65;3.20;;;;;;;18.09;45.64;101280.00;5010535;28;20034;-42
2021/05/08 07:16:26;;;;;;;3.70;3.30;;;;;;;18.11;46.62;101285.84;5011371;28;20025;-41
2021/05/08 07:18:51;;;;;;;8.18;4.00;;;;;;;18.13;47.34;101289.81;4993378;28;20088;-40
2021/05/08 07:21:16;;;;;;;4.18;3.78;;;;;;;18.16;47.09;101286.47;4998163;28;20081;-41
2021/05/08 07:23:42;;;;;;;6.43;3.80;;;;;;;18.18;47.10;101281.56;5012036;28;20034;-41
2021/05/08 07:26:07;;;;;;;9.95;3.90;;;;;;;18.21;47.29;101285.50;5000934;28;20615;-40
2021/05/08 07:28:32;;;;;;;4.15;3.45;;;;;;;18.22;47.23;101277.09;5001294;28;20050;-40
2021/05/08 07:31:03;;;;;;;6.13;4.05;;;;;;;18.24;47.12;101277.59;5001785;28;20811;-41
2021/05/08 07:33:29;;;;;;;4.28;3.55;;;;;;;18.26;46.97;101277.25;4997464;28;20042;-41
2021/05/08 07:35:54;;;;;;;5.22;3.42;;;;;;;18.27;46.50;101276.94;4991214;28;20488;-41
2021/05/08 07:38:20;;;;;;;4.72;3.75;;;;;;;18.27;46.46;101266.19;4996500;28;20504;-41
2021/05/08 07:40:49;;;;;;;5.78;3.88;;;;;;;18.30;46.51;101262.06;5001653;28;20045;-41
2021/05/08 07:43:16;;;;;;;6.70;3.85;;;;;;;18.30;46.54;101251.28;4971334;28;20318;-40
2021/05/08 07:45:41;;;;;;;12.40;4.07;;;;;;;18.29;46.35;101253.19;4996553;28;20046;-41
2021/05/08 07:48:07;;;;;;;8.45;4.00;;;;;;;18.28;46.43;101259.66;4997280;28;20396;-40
2021/05/08 07:50:32;;;;;;;6.88;3.70;;;;;;;18.29;46.10;101253.19;5002566;28;20851;-41
2021/05/08 07:52:58;;;;;;;6.68;3.60;;;;;;;18.32;46.03;101254.44;5001846;28;20505;-43
2021/05/08 07:55:23;;;;;;;4.00;3.70;;;;;;;18.32;45.83;101254.44;4999828;28;20118;-43
2021/05/08 07:57:49;;;;;;;3.97;3.33;;;;;;;18.33;45.31;101239.91;5003463;28;20096;-42
2021/05/08 08:00:16;;;;;;;7.05;3.30;;;;;;;18.32;45.85;101249.06;4999015;28;20041;-40
2021/05/08 08:02:41;;;;;;;5.13;3.30;;;;;;;18.31;45.57;101242.88;5011778;28;20030;-42
2021/05/08 08:05:07;;;;;;;5.38;3.65;;;;;;;18.32;45.62;101227.53;5003164;28;20106;-40
2021/05/08 08:07:33;;;;;;;3.97;3.35;;;;;;;18.33;45.46;101235.28;5014277;28;20065;-40
2021/05/08 08:09:58;;;;;;;4.13;3.72;;;;;;;18.36;45.38;101237.31;5006052;28;20087;-40
2021/05/08 08:12:24;;;;;;;6.38;3.30;;;;;;;18.36;45.22;101226.56;4990425;28;20037;-40
2021/05/08 08:14:49;;;;;;;4.90;3.70;;;;;;;18.36;45.18;101231.94;5022156;28;20522;-41
2021/05/08 08:17:15;;;;;;;3.78;3.42;;;;;;;18.37;45.42;101232.75;5023850;28;20455;-40
2021/05/08 08:19:40;;;;;;;6.05;3.53;;;;;;;18.40;45.06;101226.72;5018070;28;20057;-40
2021/05/08 08:22:06;;;;;;;4.43;3.45;;;;;;;18.42;45.10;101219.09;5018414;28;20037;-41
2021/05/08 08:24:31;;;;;;;3.70;3.45;;;;;;;18.43;45.16;101220.69;5022886;28;20052;-41
2021/05/08 08:26:57;;;;;;;8.60;3.80;;;;;;;18.44;45.11;101221.47;5014859;28;20033;-43
2021/05/08 08:29:22;;;;;;;7.50;3.42;;;;;;;18.43;44.87;101218.00;5018019;28;20091;-41
2021/05/08 08:31:48;;;;;;;4.10;3.80;;;;;;;18.46;45.45;101219.25;5016522;28;20068;-39
2021/05/08 08:34:14;;;;;;;7.05;3.58;;;;;;;18.47;45.36;101210.84;5020189;28;20044;-41
2021/05/08 08:36:39;;;;;;;4.68;3.88;;;;;;;18.48;45.65;101206.28;5015943;28;20040;-39
2021/05/08 08:39:05;;;;;;;6.40;4.35;;;;;;;18.51;45.49;101198.34;5011400;28;20034;-42
2021/05/08 08:41:30;;;;;;;7.82;3.75;;;;;;;18.54;45.55;101208.47;5014020;28;20725;-42
2021/05/08 08:43:56;;;;;;;7.30;3.53;;;;;;;18.58;45.52;101203.22;5017872;28;20034;-42
2021/05/08 08:46:21;;;;;;;5.18;3.63;;;;;;;18.60;45.44;101201.00;5022428;28;20404;-42
2021/05/08 08:48:47;;;;;;;7.18;3.95;;;;;;;18.62;45.43;101196.06;5022946;28;20046;-42
2021/05/08 08:51:15;;;;;;;5.60;3.53;;;;;;;18.64;45.54;101193.81;5007649;28;20038;-42
2021/05/08 08:53:41;;;;;;;4.53;3.50;;;;;;;18.65;45.30;101192.72;5019036;28;20058;-43
2021/05/08 08:56:07;;;;;;;4.75;3.47;;;;;;;18.68;45.31;101190.19;4986878;28;20042;-42
2021/05/08 08:58:35;;;;;;;5.80;3.67;;;;;;;18.70;45.09;101195.22;5003478;28;20045;-41
2021/05/08 09:01:00;;;;;;;4.47;3.75;;;;;;;18.68;44.88;101195.56;4988065;28;20060;-42
2021/05/08 09:03:26;;;;;;;4.93;3.60;;;;;;;18.71;44.82;101186.84;5005006;28;20037;-43
2021/05/08 09:05:51;;;;;;;5.88;3.65;;;;;;;18.76;44.90;101189.31;5004679;28;20107;-41
2021/05/08 09:08:17;;;;;;;6.15;3.53;;;;;;;18.79;44.75;101179.81;4986521;28;20407;-41
2021/05/08 09:10:42;;;;;;;6.63;3.35;;;;;;;18.79;44.62;101172.53;5003240;28;20515;-41
2021/05/08 09:13:15;;;;;;;5.50;3.80;;;;;;;18.79;44.83;101174.41;5004808;28;20048;-41
2021/05/08 09:15:44;;;;;;;4.45;3.25;;;;;;;18.80;44.85;101168.69;5004966;28;20046;-43
2021/05/08 09:18:29;;;;;;;3.88;3.47;;;;;;;18.78;44.98;101164.75;5003957;28;20044;-42
2021/05/08 09:20:55;;;;;;;3.97;3.35;;;;;;;18.76;44.83;101162.41;5022799;28;20060;-42
2021/05/08 09:23:37;;;;;;;3.55;3.25;;;;;;;18.75;44.90;101163.50;5022208;28;20041;-42
2021/05/08 09:26:04;;;;;;;4.47;3.83;;;;;;;18.79;44.89;101164.44;5023970;28;20025;-42
2021/05/08 09:28:31;;;;;;;4.85;3.30;;;;;;;18.81;44.89;101166.78;5023496;28;20072;-43
2021/05/08 09:30:57;;;;;;;3.50;3.08;;;;;;;18.85;44.86;101163.09;5023265;28;20043;-43
2021/05/08 09:33:23;;;;;;;3.47;3.17;;;;;;;18.88;44.71;101162.44;5023905;28;20033;-41
2021/05/08 09:36:03;;;;;;;3.45;3.03;;;;;;;18.88;44.69;101157.06;5022963;28;20037;-42
2021/05/08 09:38:39;;;;;;;4.15;3.38;;;;;;;18.90;44.66;101151.38;5022967;28;20095;-44
2021/05/08 09:41:06;;;;;;;5.47;3.20;;;;;;;18.94;44.99;101138.81;5022793;28;20036;-41
2021/05/08 09:43:31;;;;;;;4.85;3.05;;;;;;;18.97;44.67;101132.75;5005913;28;20064;-41
2021/05/08 09:45:58;;;;;;;3.25;2.97;;;;;;;19.00;44.73;101129.41;5006331;28;20056;-43
2021/05/08 09:48:26;;;;;;;5.13;3.40;;;;;;;19.04;44.76;101140.31;5023426;28;20049;-41
2021/05/08 09:50:51;;;;;;;5.13;3.42;;;;;;;19.02;44.73;101139.84;5020807;28;20033;-42
2021/05/08 09:53:26;;;;;;;3.88;3.33;;;;;;;18.99;44.73;101132.44;5022592;28;20064;-42
2021/05/08 09:55:52;;;;;;;4.70;3.38;;;;;;;18.95;44.66;101126.94;5023775;28;20403;-41
2021/05/08 09:58:25;;;;;;;4.97;3.17;;;;;;;18.95;44.73;101124.22;5022981;28;20064;-40
2021/05/08 10:00:51;;;;;;;3.22;3.03;;;;;;;18.92;44.79;101123.00;5022115;28;20334;-41
2021/05/08 10:03:17;;;;;;;3.80;3.53;;;;;;;18.92;44.65;101124.88;5022733;28;20500;-41
2021/05/08 10:05:46;;;;;;;6.20;3.40;;;;;;;18.93;44.67;101121.09;5023172;28;20029;-41
2021/05/08 10:08:12;;;;;;;5.47;2.97;;;;;;;18.93;44.59;101116.47;5022235;28;20037;-41
2021/05/08 10:10:37;;;;;;;6.47;3.20;;;;;;;18.95;44.76;101110.75;5017562;28;20037;-41
2021/05/08 10:13:07;;;;;;;4.03;3.00;;;;;;;18.99;44.55;101119.75;5001928;28;20598;-41
2021/05/08 10:15:33;;;;;;;2.97;2.88;;;;;;;19.01;44.30;101109.44;5002332;28;20093;-41
2021/05/08 10:17:58;;;;;;;3.08;2.78;;;;;;;19.05;44.49;101101.47;4985563;28;20045;-43
2021/05/08 10:20:24;;;;;;;3.17;2.90;;;;;;;19.02;44.56;101096.75;4985351;28;20048;-41
2021/05/08 10:23:11;;;;;;;3.50;3.20;;;;;;;19.03;44.43;101104.50;4986446;28;20049;-42
2021/05/08 10:25:40;;;;;;;3.75;3.10;;;;;;;19.04;44.56;101095.31;5001358;28;20404;-40
2021/05/08 10:28:06;;;;;;;3.20;2.90;;;;;;;19.00;44.31;101094.41;5000893;28;20053;-41
2021/05/08 10:30:31;;;;;;;4.70;3.45;;;;;;;19.05;44.24;101082.63;4985314;28;20034;-41
2021/05/08 10:32:57;;;;;;;2.67;2.55;;;;;;;19.09;44.20;101087.03;5002396;28;20172;-42
2021/05/08 10:35:50;;;;;;;2.70;2.60;;;;;;;19.11;44.00;101084.78;5002057;28;20578;-40
2021/05/08 10:38:23;;;;;;;3.30;3.10;;;;;;;19.11;44.17;101070.53;5015463;28;20045;-40
2021/05/08 10:40:54;;;;;;;3.00;2.75;;;;;;;19.08;44.18;101077.38;4986311;28;20129;-41
2021/05/08 10:43:38;;;;;;;3.10;2.90;;;;;;;19.06;44.00;101076.13;4986533;28;20042;-43
2021/05/08 10:46:04;;;;;;;;;;;;;;;19.03;44.40;101069.50;5002309;28;20286;-41
2021/05/08 10:48:29;;;;;;;3.33;3.03;;;;;;;19.02;44.28;101057.13;5003514;28;20705;-41
2021/05/08 10:50:58;;;;;;;3.13;2.67;;;;;;;19.04;44.35;101054.13;4985437;28;20091;-40
2021/05/08 10:53:35;;;;;;;3.17;2.38;;;;;;;18.99;44.78;101052.41;5017851;28;20068;-41
2021/05/08 10:56:01;;;;;;;4.20;3.08;;;;;;;18.96;44.51;101055.78;4985446;28;20408;-41
2021/05/08 10:58:34;;;;;;;4.70;2.83;;;;;;;18.95;44.52;101056.91;5002553;28;20042;-40
2021/05/08 11:01:00;;;;;;;2.90;2.70;;;;;;;18.94;44.39;101047.25;5022823;28;20083;-41
2021/05/08 11:03:41;;;;;;;3.60;2.50;;;;;;;18.98;44.43;101053.53;5020848;28;20049;-42
2021/05/08 11:06:12;;;;;;;3.58;2.38;;;;;;;18.98;44.39;101050.06;5022143;28;20037;-43
2021/05/08 11:08:37;;;;;;;3.35;2.70;;;;;;;18.97;44.31;101043.88;5022638;28;20149;-43
2021/05/08 11:11:09;;;;;;;3.43;3.13;;;;;;;18.91;44.30;101043.31;5022708;28;20136;-42
2021/05/08 11:13:40;;;;;;;2.50;2.30;;;;;;;18.92;44.75;101039.50;5026680;28;20046;-41
2021/05/08 11:16:05;;;;;;;2.75;2.55;;;;;;;18.94;44.43;101037.25;5025043;28;20041;-41
2021/05/08 11:18:48;;;;;;;2.63;2.43;;;;;;;18.95;44.45;101027.28;5025729;28;20495;-41
2021/05/08 11:21:14;;;;;;;2.88;2.58;;;;;;;18.98;44.48;101032.00;5027236;28;20038;-42